Time;durP1;ratioP1;P1;durP2;ratioP2;P2;SDS_P1;SDS_P2;PMS_P1;PMS_P2;Temp;Humidity;BMP_temperature;BMP_pressure;BME280_temperature;BME280_humidity;BME280_pressure;Samples;Min_cycle;Max_cycle;Signal;HPM_P1;HPM_P2
2022/08/03 00:00:25;;;;;;;3.40;2.67;;;;;;;21.60;68.62;96916.88;5064815;28;20056;-61
2022/08/03 00:02:52;;;;;;;3.05;2.80;;;;;;;21.52;71.61;96915.47;5064097;28;20064;-67
2022/08/03 00:05:19;;;;;;;4.20;3.35;;;;;;;21.36;72.65;96901.44;5064272;28;20049;-63
2022/08/03 00:07:45;;;;;;;3.50;3.20;;;;;;;21.52;72.27;96915.47;5064106;28;20122;-60
2022/08/03 00:10:16;;;;;;;3.10;2.83;;;;;;;21.56;72.38;96921.81;5062907;28;20079;-67
2022/08/03 00:12:42;;;;;;;4.43;2.30;;;;;;;21.11;70.24;96867.50;5064455;28;20078;-62
2022/08/03 00:15:09;;;;;;;3.05;2.78;;;;;;;21.63;68.67;96923.63;5067984;28;20056;-67
2022/08/03 00:17:42;;;;;;;2.43;2.23;;;;;;;21.65;68.95;96919.16;5066829;28;20419;-67
2022/08/03 00:20:20;;;;;;;3.35;2.40;;;;;;;21.33;69.22;96868.50;5067773;28;20378;-62
2022/08/03 00:22:48;;;;;;;2.53;2.35;;;;;;;21.55;69.57;96922.25;5067475;28;20522;-67
2022/08/03 00:25:15;;;;;;;3.05;2.75;;;;;;;21.13;70.44;96875.53;5067754;28;20056;-67
2022/08/03 00:27:41;;;;;;;3.10;2.80;;;;;;;21.27;71.41;96909.75;5067665;28;20049;-68
2022/08/03 00:30:09;;;;;;;3.60;3.03;;;;;;;20.55;71.10;96787.34;5067794;28;20044;-61
2022/08/03 00:32:36;;;;;;;3.30;2.53;;;;;;;21.17;71.19;96888.28;5066449;28;20048;-63
2022/08/03 00:35:07;;;;;;;2.97;2.78;;;;;;;21.23;71.62;96909.03;5073275;28;20047;-67
2022/08/03 00:37:37;;;;;;;3.05;2.80;;;;;;;20.98;71.49;96875.09;5066177;28;20052;-61
2022/08/03 00:40:14;;;;;;;3.55;2.50;;;;;;;21.21;72.07;96908.72;5066216;28;20044;-67
2022/08/03 00:42:59;;;;;;;3.78;3.03;;;;;;;21.00;71.22;96861.38;5067882;28;20060;-60
2022/08/03 00:45:28;;;;;;;3.38;3.08;;;;;;;21.31;70.91;96910.44;5066157;28;20057;-63
2022/08/03 00:47:56;;;;;;;2.63;2.42;;;;;;;21.32;70.79;96900.75;5067566;28;20416;-67
2022/08/03 00:50:25;;;;;;;2.70;2.50;;;;;;;21.26;71.02;96901.75;5067083;28;20053;-60
2022/08/03 00:52:54;;;;;;;2.47;2.28;;;;;;;20.88;71.32;96853.63;5065659;28;20060;-67
2022/08/03 00:55:21;;;;;;;2.90;2.70;;;;;;;21.26;71.12;96908.16;5066988;28;20063;-61
2022/08/03 00:57:49;;;;;;;2.67;2.47;;;;;;;20.72;71.27;96828.31;5065727;28;20044;-66
2022/08/03 01:00:19;;;;;;;2.95;2.17;;;;;;;21.06;71.66;96887.78;5067303;28;20118;-63
2022/08/03 01:02:48;;;;;;;2.45;2.25;;;;;;;21.18;71.16;96905.97;5065589;28;20133;-61
2022/08/03 01:05:16;;;;;;;2.60;2.40;;;;;;;21.11;71.19;96884.41;5066663;28;20056;-67
2022/08/03 01:08:21;;;;;;;3.05;2.83;;;;;;;20.67;71.66;96820.41;5065526;28;20432;-60
2022/08/03 01:11:25;;;;;;;3.40;2.75;;;;;;;21.24;71.79;96907.81;5066293;28;20511;-59
2022/08/03 01:14:03;;;;;;;4.18;2.45;;;;;;;20.91;71.86;96858.38;5066853;28;20508;-60
2022/08/03 01:17:29;;;;;;;2.75;2.55;;;;;;;21.15;71.41;96885.09;5066828;28;20060;-67
2022/08/03 01:20:03;;;;;;;4.47;2.38;;;;;;;21.17;71.00;96893.09;5065091;28;20114;-60
2022/08/03 01:23:07;;;;;;;3.28;2.75;;;;;;;21.21;71.03;96900.25;5066492;28;20059;-67
2022/08/03 01:25:52;;;;;;;;;;;;;;;21.12;72.13;96900.06;5064137;28;20056;-60
2022/08/03 01:28:38;;;;;;;2.40;2.20;;;;;;;21.02;72.54;96903.97;5066050;28;20398;-60
2022/08/03 01:31:09;;;;;;;2.90;2.40;;;;;;;21.03;73.06;96899.91;5066596;28;20145;-67
2022/08/03 01:33:54;;;;;;;2.97;2.50;;;;;;;21.15;72.46;96907.63;5066439;28;20060;-60
2022/08/03 01:36:25;;;;;;;3.92;2.70;;;;;;;21.06;73.26;96903.88;5066712;28;20062;-63
2022/08/03 01:38:59;;;;;;;4.43;3.38;;;;;;;21.09;73.38;96903.78;5066997;28;20052;-66
2022/08/03 01:41:32;;;;;;;2.85;2.65;;;;;;;21.04;73.64;96909.94;5066287;28;20478;-62
2022/08/03 01:44:02;;;;;;;14.18;3.85;;;;;;;20.79;76.06;96912.56;5066424;28;20067;-67
2022/08/03 01:46:50;;;;;;;24.38;5.95;;;;;;;20.79;77.20;96902.13;5065990;28;20052;-66
2022/08/03 01:49:17;;;;;;;11.50;3.83;;;;;;;20.25;79.23;96866.50;5066057;28;20075;-67
2022/08/03 01:51:47;;;;;;;4.25;2.88;;;;;;;20.76;77.88;96911.44;5065739;28;20084;-62
2022/08/03 01:54:32;;;;;;;3.47;3.17;;;;;;;20.53;79.27;96910.81;5065618;28;20474;-62
2022/08/03 01:57:01;;;;;;;3.90;2.78;;;;;;;20.33;81.43;96907.28;5064613;28;20499;-60
2022/08/03 01:59:31;;;;;;;3.47;3.17;;;;;;;20.45;81.85;96909.41;5064427;28;20499;-62
2022/08/03 02:01:59;;;;;;;3.22;2.90;;;;;;;20.72;79.98;96909.97;5065865;28;20048;-60
2022/08/03 02:04:47;;;;;;;2.95;2.65;;;;;;;20.43;78.84;96855.59;5066110;28;20113;-67
2022/08/03 02:07:15;;;;;;;4.03;2.78;;;;;;;20.89;77.96;96917.16;5065683;28;20149;-63
2022/08/03 02:09:45;;;;;;;5.82;3.70;;;;;;;20.52;77.35;96858.56;5065852;28;20052;-68
2022/08/03 02:12:13;;;;;;;4.47;3.22;;;;;;;20.54;76.76;96856.13;5065420;28;20060;-60
2022/08/03 02:14:43;;;;;;;3.42;3.05;;;;;;;20.97;75.78;96924.22;5064445;28;20056;-68
2022/08/03 02:17:12;;;;;;;3.28;2.83;;;;;;;21.07;75.63;96923.13;5064048;28;20067;-67
2022/08/03 02:19:39;;;;;;;2.80;2.50;;;;;;;21.08;75.34;96913.47;5064093;28;20057;-60
2022/08/03 02:22:10;;;;;;;3.33;2.80;;;;;;;21.11;75.02;96911.78;5065717;28;20507;-66
2022/08/03 02:24:37;;;;;;;4.68;2.97;;;;;;;20.57;75.75;96843.97;5065250;28;20055;-61
2022/08/03 02:27:13;;;;;;;3.65;3.30;;;;;;;21.14;75.94;96911.69;5065907;28;20052;-60
2022/08/03 02:29:45;;;;;;;3.85;3.35;;;;;;;21.19;75.49;96913.97;5064272;28;20416;-67
2022/08/03 02:32:16;;;;;;;3.45;3.10;;;;;;;21.14;75.45;96906.06;5065398;28;20213;-67
2022/08/03 02:34:47;;;;;;;3.50;3.10;;;;;;;21.08;75.73;96907.84;5063825;28;20057;-67
2022/08/03 02:37:18;;;;;;;4.38;3.47;;;;;;;20.94;75.34;96885.66;5065045;28;20071;-67
2022/08/03 02:39:46;;;;;;;3.70;3.40;;;;;;;21.18;74.54;96922.88;5065533;28;20052;-60
2022/08/03 02:42:17;;;;;;;6.70;3.13;;;;;;;21.17;75.18;96905.19;5064231;28;20511;-66
2022/08/03 02:44:47;;;;;;;4.80;2.97;;;;;;;21.16;75.11;96908.44;5064163;28;20086;-59
2022/08/03 02:47:15;;;;;;;3.50;3.20;;;;;;;21.13;75.52;96915.75;5064017;28;20514;-67
2022/08/03 02:49:46;;;;;;;3.92;3.63;;;;;;;21.05;75.81;96903.09;5064062;28;20052;-66
2022/08/03 02:52:19;;;;;;;3.17;2.88;;;;;;;20.56;75.67;96831.13;5063611;28;20139;-67
2022/08/03 02:54:49;;;;;;;3.75;3.45;;;;;;;21.16;75.36;96923.31;5064332;28;20056;-60
2022/08/03 02:57:18;;;;;;;4.70;2.85;;;;;;;21.17;74.66;96910.81;5064991;28;20106;-66
2022/08/03 02:59:46;;;;;;;4.38;2.83;;;;;;;21.10;74.70;96916.66;5065352;28;20056;-60
2022/08/03 03:02:15;;;;;;;2.92;2.63;;;;;;;20.72;75.83;96907.13;5064819;28;20527;-62
2022/08/03 03:04:44;;;;;;;2.55;2.33;;;;;;;20.86;76.15;96923.69;5063566;28;20063;-67
2022/08/03 03:07:32;;;;;;;3.92;2.20;;;;;;;20.80;75.34;96908.53;5063714;28;20057;-67
2022/08/03 03:10:20;;;;;;;2.80;2.42;;;;;;;20.95;75.55;96932.28;5064657;28;20045;-62
2022/08/03 03:12:50;;;;;;;3.17;2.65;;;;;;;21.02;75.30;96932.16;5063144;28;20052;-59
2022/08/03 03:15:17;;;;;;;4.05;3.08;;;;;;;20.91;74.75;96906.25;5064829;28;20072;-67
2022/08/03 03:17:46;;;;;;;3.13;2.83;;;;;;;21.09;74.89;96937.59;5064672;28;20056;-65
2022/08/03 03:20:14;;;;;;;2.90;2.67;;;;;;;21.16;74.80;96937.41;5064399;28;20114;-61
2022/08/03 03:22:58;;;;;;;5.72;3.00;;;;;;;21.12;75.08;96939.50;5064654;28;20048;-67
2022/08/03 03:25:29;;;;;;;4.28;3.10;;;;;;;21.08;75.34;96941.66;5064317;28;20073;-67
2022/08/03 03:27:57;;;;;;;2.95;2.67;;;;;;;20.59;75.69;96880.91;5063257;28;20121;-62
2022/08/03 03:30:25;;;;;;;3.50;3.20;;;;;;;20.26;83.08;96952.47;5064313;28;20128;-67
2022/08/03 03:32:52;;;;;;;4.70;3.22;;;;;;;19.58;85.81;96872.78;5062912;28;20060;-67
2022/08/03 03:35:19;;;;;;;3.35;3.03;;;;;;;20.36;84.70;96943.78;5063029;28;20060;-60
2022/08/03 03:37:46;;;;;;;5.72;3.47;;;;;;;20.25;83.81;96900.25;5064624;28;20052;-62
2022/08/03 03:40:13;;;;;;;6.53;3.30;;;;;;;20.67;82.68;96945.06;5064835;28;20247;-67
2022/08/03 03:42:40;;;;;;;4.45;3.45;;;;;;;20.75;81.68;96946.44;5064601;28;20044;-61
2022/08/03 03:45:07;;;;;;;3.40;3.10;;;;;;;20.91;78.61;96959.75;5064645;28;20048;-60
2022/08/03 03:47:34;;;;;;;4.32;2.85;;;;;;;20.79;77.61;96926.66;5064138;28;20049;-67
2022/08/03 03:50:03;;;;;;;4.07;2.53;;;;;;;20.84;78.13;96959.91;5068289;28;20057;-59
2022/08/03 03:52:31;;;;;;;3.05;2.60;;;;;;;20.88;78.35;96967.06;5068017;28;20049;-60
2022/08/03 03:54:58;;;;;;;3.15;2.75;;;;;;;21.12;76.68;96961.28;5068048;28;20060;-60
2022/08/03 03:57:28;;;;;;;2.80;2.60;;;;;;;21.22;76.38;96963.81;5067963;28;20144;-60
2022/08/03 03:59:55;;;;;;;5.00;2.95;;;;;;;21.09;76.78;96940.41;5068506;28;20049;-67
2022/08/03 04:02:21;;;;;;;4.30;2.90;;;;;;;20.77;76.15;96886.91;5066537;28;20053;-67
2022/08/03 04:10:59;;;;;;;4.10;3.00;;;;;;;21.56;73.46;96966.13;5068246;28;20048;-60
2022/08/03 04:13:34;;;;;;;4.50;3.15;;;;;;;21.27;73.25;96943.56;5066378;28;20064;-61
2022/08/03 04:16:02;;;;;;;8.10;3.13;;;;;;;21.30;76.64;96947.50;5067874;28;20131;-60
2022/08/03 04:18:31;;;;;;;5.75;4.28;;;;;;;21.36;78.27;96976.72;5066155;28;20061;-60
2022/08/03 04:21:02;;;;;;;4.80;3.17;;;;;;;21.56;77.70;96978.19;5067917;28;20056;-60
2022/08/03 04:23:33;;;;;;;4.18;3.25;;;;;;;21.44;78.21;96980.94;5067381;28;20067;-68
2022/08/03 04:26:02;;;;;;;4.78;3.28;;;;;;;21.67;76.20;96989.97;5068032;28;20087;-60
2022/08/03 04:28:31;;;;;;;5.00;3.40;;;;;;;21.92;75.09;96976.00;5067372;28;20059;-67
2022/08/03 04:31:00;;;;;;;4.28;3.72;;;;;;;21.97;75.04;96975.44;5067773;28;20530;-60
2022/08/03 04:33:30;;;;;;;4.03;3.47;;;;;;;21.85;74.32;96950.81;5067885;28;20056;-60
2022/08/03 04:35:59;;;;;;;3.60;3.30;;;;;;;21.80;72.53;96919.53;5067222;28;20592;-67
2022/08/03 04:38:35;;;;;;;3.63;3.33;;;;;;;21.52;71.89;96892.94;5067438;28;20045;-60
2022/08/03 04:41:02;;;;;;;5.88;3.50;;;;;;;21.55;72.20;96886.41;5065978;28;20053;-61
2022/08/03 04:43:32;;;;;;;6.00;3.58;;;;;;;22.19;72.48;96976.41;5067474;28;20057;-66
2022/08/03 04:46:00;;;;;;;7.35;3.80;;;;;;;21.40;78.85;96927.50;5067138;28;20063;-65
2022/08/03 04:48:27;;;;;;;8.10;4.28;;;;;;;22.04;77.52;96982.91;5066700;28;20048;-67
2022/08/03 04:50:54;;;;;;;5.18;4.15;;;;;;;22.03;75.10;96961.59;5067126;28;20098;-60
2022/08/03 04:53:21;;;;;;;4.50;4.00;;;;;;;22.46;73.66;96976.78;5066964;28;20052;-61
2022/08/03 04:55:48;;;;;;;6.10;3.80;;;;;;;22.54;72.33;96974.56;5066976;28;20052;-66
2022/08/03 04:58:15;;;;;;;4.10;3.08;;;;;;;22.71;71.40;96989.38;5067038;28;20492;-67
2022/08/03 05:00:42;;;;;;;5.65;4.00;;;;;;;22.79;71.87;96999.22;5066664;28;20542;-67
2022/08/03 05:03:09;;;;;;;7.53;4.30;;;;;;;22.60;70.84;96955.03;5066808;28;20059;-67
2022/08/03 05:05:54;;;;;;;7.22;4.07;;;;;;;23.05;69.50;96975.34;5065989;28;20370;-67
2022/08/03 05:08:35;;;;;;;7.07;4.00;;;;;;;23.21;68.69;96978.03;5065886;28;20060;-60
2022/08/03 05:11:14;;;;;;;6.43;4.00;;;;;;;23.43;68.12;96978.91;5066963;28;20050;-60
2022/08/03 05:13:40;;;;;;;4.80;3.60;;;;;;;23.76;66.92;96980.16;5066888;28;20055;-60
2022/08/03 05:16:07;;;;;;;7.18;4.40;;;;;;;23.93;66.47;96995.75;5066468;28;20052;-61
2022/08/03 05:18:34;;;;;;;4.70;4.22;;;;;;;23.52;66.80;96925.28;5066685;28;20426;-63
2022/08/03 05:21:01;;;;;;;6.13;3.90;;;;;;;24.29;65.98;96989.56;5065337;28;20071;-60
2022/08/03 05:23:28;;;;;;;6.35;4.05;;;;;;;24.68;64.77;96986.84;5066519;28;20045;-67
2022/08/03 05:25:55;;;;;;;8.13;4.63;;;;;;;24.95;63.07;96991.84;5066438;28;20064;-67
2022/08/03 05:28:21;;;;;;;13.63;5.43;;;;;;;25.13;61.23;96992.69;5066912;28;20469;-61
2022/08/03 05:30:48;;;;;;;6.78;6.05;;;;;;;25.20;60.07;96998.06;5066438;28;20066;-67
2022/08/03 05:33:15;;;;;;;8.65;5.72;;;;;;;24.91;60.87;96938.13;5066363;28;20090;-67
2022/08/03 05:35:41;;;;;;;7.18;6.45;;;;;;;25.23;60.90;96999.97;5066787;28;20431;-67
2022/08/03 05:38:28;;;;;;;16.70;8.25;;;;;;;25.06;61.52;96990.16;5064809;28;20060;-68
2022/08/03 05:41:03;;;;;;;13.00;7.88;;;;;;;24.50;63.14;97012.19;5061647;28;20060;-72
2022/08/03 05:43:54;;;;;;;12.73;7.07;;;;;;;24.05;64.02;96960.16;5064647;28;20049;-62
2022/08/03 05:46:21;;;;;;;15.02;8.23;;;;;;;24.47;64.09;97001.78;5054986;28;20054;-62
2022/08/03 05:48:48;;;;;;;10.35;8.68;;;;;;;24.60;62.94;97002.50;5056700;28;20070;-71
2022/08/03 05:51:15;;;;;;;9.50;8.45;;;;;;;24.52;62.30;96969.25;5057653;28;20109;-67
2022/08/03 05:53:43;;;;;;;10.40;9.40;;;;;;;24.77;62.06;96997.44;5046107;28;20049;-59
2022/08/03 05:56:11;;;;;;;10.40;9.40;;;;;;;24.85;61.82;97027.09;5046307;28;20048;-58
2022/08/03 05:58:45;;;;;;;10.18;9.18;;;;;;;24.95;62.32;97017.34;5057088;28;20083;-59
2022/08/03 06:01:14;;;;;;;10.10;8.55;;;;;;;25.12;61.33;97002.47;5054174;28;20048;-70
2022/08/03 06:03:41;;;;;;;9.90;8.15;;;;;;;25.34;61.29;97024.31;5045040;28;20117;-58
2022/08/03 06:06:08;;;;;;;12.45;7.63;;;;;;;25.56;60.66;97022.16;5043376;28;20052;-72
2022/08/03 06:08:35;;;;;;;10.73;8.32;;;;;;;25.82;59.58;97024.25;5046181;28;20049;-59
2022/08/03 06:11:03;;;;;;;9.25;6.97;;;;;;;25.74;58.55;97056.22;5045660;28;20045;-60
2022/08/03 06:13:31;;;;;;;11.75;7.90;;;;;;;25.99;58.10;97013.34;5055962;28;20065;-61
2022/08/03 06:15:57;;;;;;;12.00;8.25;;;;;;;26.12;57.81;97026.19;5060362;28;20052;-66
2022/08/03 06:18:24;;;;;;;8.27;7.50;;;;;;;26.29;57.32;97026.63;5072120;28;20061;-65
2022/08/03 06:20:51;;;;;;;10.18;7.00;;;;;;;26.26;57.25;97021.91;5065539;28;20049;-70
2022/08/03 06:23:18;;;;;;;14.35;7.78;;;;;;;25.59;57.43;96921.91;5064251;28;20059;-71
2022/08/03 06:25:45;;;;;;;12.48;7.72;;;;;;;25.77;57.61;96996.47;5059529;28;20066;-69
2022/08/03 06:28:13;;;;;;;15.32;7.78;;;;;;;26.13;57.26;97035.50;5059876;28;20057;-59
2022/08/03 06:31:00;;;;;;;10.32;7.13;;;;;;;25.89;57.80;97017.47;5045168;28;20908;-59
2022/08/03 06:33:27;;;;;;;6.93;5.85;;;;;;;25.69;58.84;97034.16;5050565;28;20107;-61
2022/08/03 06:36:14;;;;;;;7.75;5.70;;;;;;;25.18;60.37;97026.09;5052346;28;20048;-60
2022/08/03 06:38:41;;;;;;;13.38;12.15;;;;;;;25.45;59.76;97036.00;5059921;28;20574;-60
2022/08/03 06:41:07;;;;;;;6.57;5.95;;;;;;;25.34;59.59;97024.31;5059881;28;20056;-69
2022/08/03 06:43:36;;;;;;;7.63;5.63;;;;;;;24.61;59.33;96904.16;5059588;28;20053;-61
2022/08/03 06:46:23;;;;;;;6.13;5.60;;;;;;;25.02;59.99;96969.66;5060563;28;20052;-59
2022/08/03 06:48:51;;;;;;;6.75;5.70;;;;;;;25.26;60.21;96978.38;5043421;28;20059;-71
2022/08/03 06:51:18;;;;;;;5.72;5.03;;;;;;;25.47;59.86;97028.59;5046604;28;20107;-61
2022/08/03 06:53:44;;;;;;;7.47;5.63;;;;;;;25.02;59.77;96975.31;5062188;28;20056;-59
2022/08/03 06:56:11;;;;;;;11.38;6.07;;;;;;;25.71;59.53;97037.31;5062519;28;20052;-61
2022/08/03 06:58:38;;;;;;;10.57;5.75;;;;;;;25.97;59.21;97038.59;5055032;28;20399;-63
2022/08/03 07:01:04;;;;;;;7.70;5.50;;;;;;;25.73;60.08;97046.16;5044293;28;20052;-68
2022/08/03 07:03:31;;;;;;;6.38;5.78;;;;;;;25.99;58.78;97036.88;5044276;28;20048;-58
2022/08/03 07:05:58;;;;;;;6.47;5.32;;;;;;;26.18;57.70;97043.34;5052955;28;20122;-71
2022/08/03 07:08:26;;;;;;;9.68;4.95;;;;;;;26.29;56.81;97038.00;5045598;28;20059;-60
2022/08/03 07:10:59;;;;;;;6.03;4.75;;;;;;;26.64;56.16;97036.41;5060501;28;20052;-76
2022/08/03 07:13:26;;;;;;;9.02;5.18;;;;;;;26.88;55.21;97034.44;5061580;28;20056;-61
2022/08/03 07:15:53;;;;;;;9.35;5.70;;;;;;;27.00;54.87;97030.59;5061819;28;20049;-61
2022/08/03 07:18:22;;;;;;;6.55;5.63;;;;;;;27.33;54.38;97050.59;5045234;28;20423;-64
2022/08/03 07:20:55;;;;;;;6.47;5.57;;;;;;;27.26;53.99;97026.13;5042672;28;20080;-67
2022/08/03 07:23:22;;;;;;;8.88;5.85;;;;;;;27.67;52.97;97042.34;5042436;28;20159;-71
2022/08/03 07:25:49;;;;;;;7.50;6.53;;;;;;;27.85;52.15;97047.91;5070097;28;20163;-61
2022/08/03 07:28:17;;;;;;;6.78;5.90;;;;;;;27.87;52.22;97014.03;5057335;28;20415;-72
2022/08/03 07:30:43;;;;;;;6.22;5.40;;;;;;;28.20;50.82;97036.00;5064268;28;20057;-67
2022/08/03 07:33:10;;;;;;;5.75;5.25;;;;;;;28.35;50.10;97031.09;5061201;28;20056;-62
2022/08/03 07:35:37;;;;;;;10.90;4.90;;;;;;;28.60;49.49;97033.41;5047286;28;20056;-67
2022/08/03 07:38:04;;;;;;;6.32;5.75;;;;;;;28.23;48.73;96938.13;5062624;28;20051;-75
2022/08/03 07:40:31;;;;;;;6.95;5.88;;;;;;;28.97;49.33;97037.47;5063321;28;20049;-61
2022/08/03 07:42:59;;;;;;;11.23;6.45;;;;;;;28.72;47.82;96986.75;5062435;28;20535;-68
2022/08/03 07:45:25;;;;;;;6.57;4.60;;;;;;;29.04;47.33;97034.19;5063760;28;20064;-60
2022/08/03 07:47:52;;;;;;;5.05;4.68;;;;;;;29.25;47.59;97030.97;5062506;28;20056;-59
2022/08/03 07:50:20;;;;;;;5.53;4.82;;;;;;;29.60;45.91;97028.13;5064039;28;20052;-66
2022/08/03 07:52:49;;;;;;;4.63;4.32;;;;;;;29.67;45.42;97030.59;5063022;28;20106;-60
2022/08/03 07:55:21;;;;;;;4.93;4.38;;;;;;;29.86;44.73;97034.75;5051259;28;20056;-70
2022/08/03 07:58:14;;;;;;;4.90;4.50;;;;;;;29.61;43.90;96978.28;5054673;28;20535;-63
2022/08/03 08:00:44;;;;;;;5.72;5.13;;;;;;;29.76;44.43;97030.47;5047370;28;20087;-60
2022/08/03 08:03:12;;;;;;;5.13;4.72;;;;;;;29.47;44.37;96967.72;5043318;28;20457;-66
2022/08/03 08:05:39;;;;;;;5.25;4.60;;;;;;;29.87;43.45;96978.41;5056954;28;20052;-63
2022/08/03 08:08:05;;;;;;;5.63;5.13;;;;;;;30.19;42.20;97068.72;5053600;28;20511;-63
2022/08/03 08:10:33;;;;;;;5.57;5.18;;;;;;;30.14;42.40;97078.78;5047780;28;20049;-62
2022/08/03 08:13:00;;;;;;;5.90;5.45;;;;;;;29.57;42.12;96974.88;5042363;28;20455;-60
2022/08/03 08:15:27;;;;;;;5.05;4.65;;;;;;;28.95;43.04;96960.16;5045695;28;20474;-66
2022/08/03 08:17:56;;;;;;;7.25;6.35;;;;;;;29.58;42.99;97053.53;5043418;28;20059;-61
2022/08/03 08:20:26;;;;;;;47.35;35.38;;;;;;;29.10;43.42;96992.34;5044111;28;20151;-61
2022/08/03 08:23:03;;;;;;;6.82;6.22;;;;;;;28.67;42.90;96882.72;5042306;28;20126;-62
2022/08/03 08:25:51;;;;;;;6.45;5.85;;;;;;;29.71;42.98;97022.63;5042378;28;20083;-66
2022/08/03 08:28:19;;;;;;;13.18;7.38;;;;;;;29.75;42.85;96956.72;5052978;28;20060;-58
2022/08/03 08:30:57;;;;;;;8.80;5.40;;;;;;;30.37;42.18;97032.06;5055842;28;20088;-67
2022/08/03 08:33:24;;;;;;;5.47;4.95;;;;;;;30.25;42.12;97027.50;5047317;28;20049;-60
2022/08/03 08:35:55;;;;;;;4.72;4.40;;;;;;;30.13;42.30;97025.75;5051261;28;20125;-59
2022/08/03 08:38:22;;;;;;;4.55;4.22;;;;;;;29.74;43.37;97027.31;5066669;28;20056;-62
2022/08/03 08:40:49;;;;;;;4.70;4.40;;;;;;;30.27;42.66;97027.00;5054857;28;20056;-60
2022/08/03 08:43:16;;;;;;;4.55;4.15;;;;;;;30.39;41.83;96980.88;5046761;28;20064;-62
2022/08/03 08:45:43;;;;;;;4.50;4.20;;;;;;;29.67;41.27;96839.25;5045011;28;20123;-61
2022/08/03 08:48:12;;;;;;;5.20;4.47;;;;;;;30.04;41.89;96988.75;5046061;28;20048;-65
2022/08/03 08:50:39;;;;;;;4.80;4.28;;;;;;;30.00;42.20;97002.50;5045809;28;20526;-63
2022/08/03 08:53:08;;;;;;;4.18;3.88;;;;;;;30.17;41.43;96992.06;5046719;28;20052;-63
2022/08/03 08:55:46;;;;;;;4.00;3.45;;;;;;;30.49;40.69;97016.59;5060537;28;20068;-62
2022/08/03 08:58:35;;;;;;;5.28;3.85;;;;;;;30.32;41.73;97021.34;5051281;28;20067;-61
2022/08/03 09:01:03;;;;;;;3.97;3.67;;;;;;;30.36;40.84;97016.22;5060402;28;20182;-69
2022/08/03 09:03:32;;;;;;;3.78;3.47;;;;;;;30.35;41.28;97014.63;5057086;28;20071;-67
2022/08/03 09:06:00;;;;;;;4.15;3.65;;;;;;;30.18;42.17;97010.75;5066726;28;20534;-60
2022/08/03 09:08:28;;;;;;;4.03;3.78;;;;;;;30.22;40.95;96974.22;5066037;28;20075;-61
2022/08/03 09:10:55;;;;;;;5.38;3.92;;;;;;;30.78;41.04;97013.56;5066237;28;20052;-59
2022/08/03 09:13:22;;;;;;;4.43;3.83;;;;;;;30.72;41.58;96974.72;5064985;28;20049;-59
2022/08/03 09:16:11;;;;;;;5.20;4.80;;;;;;;30.54;41.86;97010.16;5064620;28;20079;-67
2022/08/03 09:18:39;;;;;;;5.78;5.18;;;;;;;30.27;42.64;96995.56;5066094;28;20527;-68
2022/08/03 09:21:18;;;;;;;8.23;5.07;;;;;;;30.36;43.15;97013.34;5066144;28;20071;-67
2022/08/03 09:24:02;;;;;;;4.70;4.22;;;;;;;30.06;43.15;97037.63;5065050;28;20106;-67
2022/08/03 09:26:36;;;;;;;9.45;6.03;;;;;;;30.13;42.90;97019.28;5065549;28;20048;-60
2022/08/03 09:29:09;;;;;;;6.03;4.65;;;;;;;29.95;43.80;97025.28;5066366;28;20636;-62
2022/08/03 09:31:45;;;;;;;5.82;4.55;;;;;;;29.83;44.35;97018.63;5064129;28;20059;-67
2022/08/03 09:34:16;;;;;;;4.97;4.22;;;;;;;29.53;45.48;97006.50;5066148;28;20048;-61
2022/08/03 09:36:49;;;;;;;4.47;3.97;;;;;;;29.24;46.21;97015.13;5051729;28;20055;-60
2022/08/03 09:39:20;;;;;;;4.78;4.40;;;;;;;29.38;46.27;97022.09;5045893;28;20139;-68
2022/08/03 09:42:13;;;;;;;4.80;4.13;;;;;;;29.40;45.76;97013.81;5048475;28;20496;-63
2022/08/03 09:44:47;;;;;;;4.35;3.95;;;;;;;29.30;46.27;97010.31;5064449;28;20056;-71
2022/08/03 09:47:35;;;;;;;4.28;3.97;;;;;;;29.23;45.92;97009.91;5061958;28;20513;-69
2022/08/03 09:50:07;;;;;;;5.72;4.43;;;;;;;29.55;46.26;97003.13;5063857;28;20484;-68
2022/08/03 09:52:37;;;;;;;4.45;4.15;;;;;;;29.40;44.95;96985.28;5056451;28;20071;-61
2022/08/03 09:55:22;;;;;;;4.20;3.90;;;;;;;29.63;44.65;97010.00;5044578;28;20099;-59
2022/08/03 09:58:09;;;;;;;4.35;4.03;;;;;;;29.12;45.09;96961.22;5045424;28;20099;-67
2022/08/03 10:00:58;;;;;;;5.18;4.78;;;;;;;29.54;44.94;97010.16;5057443;28;20048;-59
2022/08/03 10:03:29;;;;;;;4.30;4.00;;;;;;;29.73;44.84;97011.47;5058651;28;20064;-59
2022/08/03 10:05:57;;;;;;;4.90;4.18;;;;;;;29.59;45.43;97003.72;5064184;28;20886;-66
2022/08/03 10:08:25;;;;;;;4.80;4.40;;;;;;;29.64;45.03;97002.22;5043767;28;20048;-65
2022/08/03 10:10:57;;;;;;;7.50;4.85;;;;;;;29.14;44.31;96922.38;5045383;28;20049;-60
2022/08/03 10:13:24;;;;;;;4.32;3.92;;;;;;;29.85;43.82;97004.63;5045005;28;20079;-68
2022/08/03 10:15:51;;;;;;;5.15;3.97;;;;;;;30.32;42.05;96964.16;5044764;28;20386;-59
2022/08/03 10:18:37;;;;;;;5.65;4.20;;;;;;;30.34;41.50;96944.44;5059830;28;20090;-65
2022/08/03 10:21:09;;;;;;;4.60;4.20;;;;;;;31.08;40.63;96993.28;5062073;28;20048;-60
2022/08/03 10:23:39;;;;;;;4.93;4.30;;;;;;;30.89;41.23;96996.50;5053679;28;20045;-66
2022/08/03 10:26:10;;;;;;;4.82;4.43;;;;;;;30.90;40.59;96986.59;5044600;28;20057;-66
2022/08/03 10:28:46;;;;;;;5.47;4.93;;;;;;;30.54;41.96;96947.22;5044330;28;20061;-67
2022/08/03 10:31:15;;;;;;;10.60;4.78;;;;;;;31.17;40.62;96981.63;5043589;28;20564;-59
2022/08/03 10:33:45;;;;;;;4.72;4.28;;;;;;;30.98;39.27;96908.88;5044688;28;20063;-59
2022/08/03 10:36:22;;;;;;;4.40;3.92;;;;;;;31.57;39.08;96976.47;5053403;28;20052;-59
2022/08/03 10:38:55;;;;;;;4.90;4.03;;;;;;;31.17;40.00;96947.28;5064743;28;20503;-65
2022/08/03 10:41:31;;;;;;;4.18;3.95;;;;;;;31.50;39.58;96979.03;5064711;28;20517;-68
2022/08/03 10:44:04;;;;;;;4.95;4.55;;;;;;;31.00;39.74;96940.66;5064468;28;20056;-68
2022/08/03 10:46:33;;;;;;;4.63;4.22;;;;;;;31.41;39.63;96976.38;5064968;28;20060;-60
2022/08/03 10:49:01;;;;;;;5.47;3.90;;;;;;;31.61;39.43;96973.34;5064174;28;20056;-67
2022/08/03 10:51:31;;;;;;;4.90;4.50;;;;;;;31.54;39.60;96965.22;5064305;28;20151;-59
2022/08/03 10:53:59;;;;;;;4.07;3.78;;;;;;;31.35;39.75;96958.34;5057935;28;20113;-65
2022/08/03 10:59:46;;;;;;;4.10;3.90;;;;;;;31.65;39.63;96959.56;5057631;28;20052;-68
2022/08/03 11:02:13;;;;;;;4.55;4.00;;;;;;;31.36;39.88;96959.94;5025541;28;20572;-59
2022/08/03 11:04:41;;;;;;;5.03;4.45;;;;;;;31.37;40.31;96912.81;5056617;28;20075;-65
2022/08/03 11:07:24;;;;;;;4.90;4.40;;;;;;;32.08;39.86;96941.81;5050330;28;20048;-60
2022/08/03 11:09:53;;;;;;;4.43;4.13;;;;;;;31.81;38.38;96945.34;5058628;28;20049;-60
2022/08/03 11:12:26;;;;;;;4.32;4.03;;;;;;;31.67;38.93;96959.84;5046422;28;20045;-59
2022/08/03 11:15:00;;;;;;;3.83;3.53;;;;;;;31.45;39.79;96916.75;5061572;28;20060;-64
2022/08/03 11:17:27;;;;;;;4.45;4.07;;;;;;;31.05;39.82;96889.16;5049158;28;20107;-65
2022/08/03 11:19:54;;;;;;;4.28;3.97;;;;;;;31.51;38.78;96931.88;5062824;28;20064;-64
2022/08/03 11:22:24;;;;;;;6.50;4.75;;;;;;;31.23;38.64;96860.13;5061973;28;20225;-70
2022/08/03 11:24:53;;;;;;;4.40;4.00;;;;;;;31.83;37.85;96924.75;5062053;28;20495;-74
2022/08/03 11:27:23;;;;;;;3.88;3.67;;;;;;;31.89;38.33;96923.50;5044473;28;20053;-69
2022/08/03 11:30:22;;;;;;;3.95;3.75;;;;;;;32.13;37.50;96926.72;5044188;28;20044;-65
2022/08/03 11:32:57;;;;;;;4.40;4.00;;;;;;;32.20;36.75;96919.72;5044319;28;20494;-65
2022/08/03 11:35:25;;;;;;;4.13;3.60;;;;;;;32.32;36.70;96909.81;5049596;28;20056;-60
2022/08/03 11:37:55;;;;;;;4.10;3.80;;;;;;;32.53;35.37;96902.59;5042814;28;20048;-60
2022/08/03 11:40:44;;;;;;;3.78;3.58;;;;;;;32.93;35.02;96902.09;5045513;28;20052;-58
2022/08/03 11:43:28;;;;;;;4.10;3.80;;;;;;;33.12;34.80;96896.56;5054084;28;20052;-63
2022/08/03 11:45:57;;;;;;;4.18;3.78;;;;;;;32.61;35.22;96897.91;5057139;28;20052;-73
2022/08/03 11:48:32;;;;;;;4.43;4.13;;;;;;;31.66;35.18;96872.34;5061066;28;20049;-60
2022/08/03 11:51:04;;;;;;;4.20;3.90;;;;;;;31.79;35.78;96904.94;5064648;28;20049;-67
2022/08/03 11:53:31;;;;;;;3.75;3.55;;;;;;;32.15;35.25;96903.28;5064042;28;20075;-60
2022/08/03 11:56:07;;;;;;;4.28;3.97;;;;;;;31.86;35.38;96889.38;5061563;28;20147;-60
2022/08/03 11:58:51;;;;;;;4.30;3.83;;;;;;;32.19;35.34;96900.94;5063937;28;20128;-62
2022/08/03 12:01:39;;;;;;;4.10;3.90;;;;;;;32.61;34.22;96892.16;5051348;28;20053;-66